Terminal Aerodrome Forecast
Issued by NWS Brownsville, TX

Home | Current Version | Previous Version | Text Only | Print | Product List | Glossary On
Versions: 1 2 3 4 5 6 7 8 9 10 11 12 13 14 15 16 17 18 19 20
771
FTUS44 KBRO 281734
TAFMFE
TAF
KMFE 281734Z 2818/2918 14022G30KT P6SM FEW050 SCT200
     FM290100 14018G25KT P6SM SCT200
     FM290400 15015KT P6SM BKN015
     FM291000 17011KT P6SM BKN015
     FM291500 24013G19KT P6SM SKC=

USA.gov is the U.S. government's official web portal to all federal, state and local government web resources and services.